Crawford, Texas
Current Conditions -  °F | °C
As of 5:55 AM on Wednesday 28 Jan 2015 (Local Time) from KPWG Reporting Station
Clear Clear  
Wind Chill: 44°   Ceiling: Unl
Heat Index: 46°   Visibility: 10mi
Dew Point: 37°   Wind: 5mph
Humidity: 71%   Direction: 200°SSW
Pressure: 30.12"   Gusts: NA
Location:  31.53°N, 97.44°W
Report Text: KPWG 281155Z AUTO 20004KT 10SM CLR 08/03 A3012 RMK AO1 10110 20080 57003
Loading
Personal Weather Stations






























Interactive Weather Map New forecast layout! Learn more

10-Day Weather Forecast

Advertisements
Track Severe Weather on mobile